Time;durP1;ratioP1;P1;durP2;ratioP2;P2;SDS_P1;SDS_P2;PMS_P1;PMS_P2;Temp;Humidity;BMP_temperature;BMP_pressure;BME280_temperature;BME280_humidity;BME280_pressure;Samples;Min_cycle;Max_cycle;Signal;HPM_P1;HPM_P2
2021/03/25 00:00:28;;;;;;;16.05;10.82;;;;;;;3.62;77.05;100863.31;2081337;28;20017;-64
2021/03/25 00:01:34;;;;;;;13.38;10.18;;;;;;;3.63;77.11;100870.19;2081029;28;20075;-64
2021/03/25 00:02:34;;;;;;;17.10;10.55;;;;;;;3.70;76.85;100873.72;2082025;28;20026;-64
2021/03/25 00:03:35;;;;;;;15.50;11.20;;;;;;;3.68;76.94;100872.81;2082065;28;20540;-64
2021/03/25 00:04:36;;;;;;;20.25;11.13;;;;;;;3.77;76.47;100872.06;2082028;28;20523;-64
2021/03/25 00:05:36;;;;;;;17.95;10.73;;;;;;;3.80;76.23;100872.06;2082041;28;20116;-64
2021/03/25 00:06:43;;;;;;;15.00;10.57;;;;;;;3.73;76.38;100872.00;2081894;28;20025;-64
2021/03/25 00:07:44;;;;;;;20.25;10.57;;;;;;;3.71;76.34;100871.13;2081551;28;20036;-64
2021/03/25 00:08:44;;;;;;;14.23;11.13;;;;;;;3.76;76.17;100865.16;2082016;28;20025;-64
2021/03/25 00:09:45;;;;;;;21.05;11.20;;;;;;;3.67;76.42;100871.97;2081913;28;20021;-64
2021/03/25 00:10:46;;;;;;;16.70;11.27;;;;;;;3.62;76.66;100863.31;2081480;28;20036;-64
2021/03/25 00:11:47;;;;;;;17.35;11.02;;;;;;;3.56;76.90;100863.28;2081890;28;20039;-64
2021/03/25 00:12:47;;;;;;;16.67;11.17;;;;;;;3.63;76.98;100864.16;2081766;28;20044;-64
2021/03/25 00:13:47;;;;;;;18.27;11.97;;;;;;;3.58;76.90;100862.44;2081730;28;20276;-64
2021/03/25 00:14:48;;;;;;;19.30;10.97;;;;;;;3.64;76.84;100858.16;2081554;28;20473;-64
2021/03/25 00:15:49;;;;;;;16.83;11.07;;;;;;;3.56;77.24;100852.97;2080453;28;20436;-64
2021/03/25 00:16:49;;;;;;;15.25;11.48;;;;;;;3.50;77.56;100858.91;2080027;28;20209;-64
2021/03/25 00:17:50;;;;;;;17.10;11.13;;;;;;;3.55;77.66;100857.22;2080842;28;20025;-64
2021/03/25 00:18:50;;;;;;;17.23;11.93;;;;;;;3.53;77.71;100858.06;2080590;28;20560;-63
2021/03/25 00:19:50;;;;;;;17.13;11.10;;;;;;;3.65;77.29;100852.16;2080638;28;20028;-63
2021/03/25 00:20:51;;;;;;;17.63;11.30;;;;;;;3.62;77.45;100858.16;2081097;28;20474;-63
2021/03/25 00:21:51;;;;;;;14.43;10.43;;;;;;;3.64;77.26;100851.31;2081924;28;20045;-64
2021/03/25 00:22:52;;;;;;;14.90;11.03;;;;;;;3.63;77.38;100859.00;2080974;28;20446;-64
2021/03/25 00:23:53;;;;;;;16.33;10.93;;;;;;;3.68;77.29;100859.94;2081778;28;20048;-64
2021/03/25 00:24:53;;;;;;;17.40;11.07;;;;;;;3.64;77.45;100853.00;2081262;28;20025;-64
2021/03/25 00:25:53;;;;;;;17.30;12.13;;;;;;;3.68;77.27;100853.03;2081581;28;20530;-64
2021/03/25 00:26:54;;;;;;;15.10;11.27;;;;;;;3.64;77.43;100851.31;2072848;28;20025;-64
2021/03/25 00:27:54;;;;;;;16.10;11.20;;;;;;;3.71;77.35;100860.81;2072990;28;20084;-64
2021/03/25 00:28:55;;;;;;;15.15;11.25;;;;;;;3.67;77.37;100853.94;2081404;28;20037;-63
2021/03/25 00:29:55;;;;;;;20.50;11.53;;;;;;;3.72;77.42;100859.97;2081868;28;20036;-64
2021/03/25 00:30:55;;;;;;;16.03;10.67;;;;;;;3.63;77.71;100857.31;2081417;28;20697;-64
2021/03/25 00:31:56;;;;;;;16.70;11.23;;;;;;;3.61;77.82;100859.00;2073137;28;20101;-64
2021/03/25 00:32:59;;;;;;;16.00;11.50;;;;;;;3.64;77.75;100853.88;2072917;28;20540;-64
2021/03/25 00:33:59;;;;;;;20.27;10.43;;;;;;;3.63;77.84;100857.31;2081722;28;20104;-64
2021/03/25 00:34:59;;;;;;;20.00;11.27;;;;;;;3.58;78.01;100856.38;2081782;28;20429;-64
2021/03/25 00:36:00;;;;;;;17.00;10.83;;;;;;;3.66;77.87;100854.78;2081878;28;20025;-63
2021/03/25 00:37:00;;;;;;;16.63;11.13;;;;;;;3.69;77.64;100853.94;2081492;28;20029;-64
2021/03/25 00:38:00;;;;;;;14.37;10.57;;;;;;;3.68;77.65;100849.63;2081814;28;20380;-64
2021/03/25 00:39:01;;;;;;;16.97;10.77;;;;;;;3.61;78.03;100848.69;2081501;28;20099;-64
2021/03/25 00:40:03;;;;;;;16.83;11.17;;;;;;;3.59;78.27;100852.97;2081674;28;20035;-64
2021/03/25 00:41:03;;;;;;;15.50;11.32;;;;;;;3.72;78.01;100851.38;2081688;28;20567;-64
2021/03/25 00:42:04;;;;;;;16.97;10.60;;;;;;;3.63;78.04;100847.00;2081335;28;20022;-64
2021/03/25 00:43:07;;;;;;;14.27;10.65;;;;;;;3.54;78.40;100847.78;2081710;28;20025;-63
2021/03/25 00:44:10;;;;;;;15.57;10.23;;;;;;;3.47;78.79;100847.72;2075119;28;20038;-64
2021/03/25 00:45:14;;;;;;;15.05;10.88;;;;;;;3.58;78.59;100848.66;2064880;28;20022;-63
2021/03/25 00:46:14;;;;;;;15.32;11.00;;;;;;;3.50;78.41;100842.56;2073045;28;20540;-63
2021/03/25 00:47:15;;;;;;;14.70;10.43;;;;;;;3.64;78.41;100845.28;2074094;28;20079;-63
2021/03/25 00:48:18;;;;;;;14.27;9.70;;;;;;;3.50;78.50;100842.56;2071730;28;20120;-64
2021/03/25 00:49:18;;;;;;;19.48;11.50;;;;;;;3.52;78.56;100841.75;2073589;28;20063;-65
2021/03/25 00:50:41;;;;;;;14.30;9.97;;;;;;;3.52;78.60;100846.03;2081561;28;20025;-63
2021/03/25 00:51:41;;;;;;;17.70;10.82;;;;;;;3.49;78.70;100843.41;2080948;28;20029;-64
2021/03/25 00:52:41;;;;;;;17.40;10.83;;;;;;;3.50;78.70;100837.41;2080787;28;20105;-63
2021/03/25 00:53:42;;;;;;;12.97;10.60;;;;;;;3.49;78.82;100840.84;2081335;28;20021;-64
2021/03/25 00:54:42;;;;;;;16.43;10.83;;;;;;;3.49;78.64;100838.25;2081639;28;20067;-64
2021/03/25 00:55:42;;;;;;;15.73;10.77;;;;;;;3.45;78.82;100842.53;2081745;28;20083;-64
2021/03/25 00:56:43;;;;;;;12.63;10.30;;;;;;;3.37;78.95;100834.75;2081141;28;20375;-64
2021/03/25 00:57:43;;;;;;;17.90;11.27;;;;;;;3.37;79.26;100836.44;2072511;28;20022;-63
2021/03/25 00:58:43;;;;;;;16.93;11.43;;;;;;;3.28;79.37;100837.25;2075198;28;20075;-64
2021/03/25 00:59:43;;;;;;;14.80;11.00;;;;;;;3.30;79.45;100835.53;2073584;28;20029;-63
2021/03/25 01:00:46;;;;;;;18.20;11.53;;;;;;;3.33;79.42;100835.56;2077080;28;20115;-63
2021/03/25 01:01:46;;;;;;;16.05;11.65;;;;;;;3.29;79.47;100833.78;2080988;28;20056;-64
2021/03/25 01:02:47;;;;;;;16.33;11.23;;;;;;;3.26;79.76;100834.63;2080996;28;20017;-63
2021/03/25 01:03:47;;;;;;;16.50;11.90;;;;;;;3.26;79.60;100834.63;2081571;28;20123;-64
2021/03/25 01:04:47;;;;;;;16.90;11.93;;;;;;;3.33;79.67;100834.72;2080906;28;20021;-64
2021/03/25 01:05:48;;;;;;;19.10;11.70;;;;;;;3.32;79.67;100833.81;2078334;28;20053;-64
2021/03/25 01:06:48;;;;;;;15.95;11.68;;;;;;;3.25;80.00;100834.63;2081450;28;20029;-63
2021/03/25 01:07:49;;;;;;;17.40;11.90;;;;;;;3.35;79.81;100832.97;2080150;28;20705;-64
2021/03/25 01:08:50;;;;;;;16.95;11.57;;;;;;;3.45;79.67;100837.38;2081499;28;20108;-63
2021/03/25 01:09:50;;;;;;;21.43;12.70;;;;;;;3.52;79.59;100830.56;2072852;28;20034;-64
2021/03/25 01:10:58;;;;;;;18.17;12.73;;;;;;;3.40;79.83;100836.50;2072966;28;20036;-63
2021/03/25 01:11:59;;;;;;;16.90;11.93;;;;;;;3.37;79.92;100836.44;2084892;28;20060;-64
2021/03/25 01:13:01;;;;;;;18.47;12.47;;;;;;;3.52;79.78;100835.72;2081354;28;20056;-63
2021/03/25 01:14:07;;;;;;;19.13;11.93;;;;;;;3.46;79.87;100833.97;2080799;28;20120;-64
2021/03/25 01:15:10;;;;;;;16.58;11.45;;;;;;;3.38;80.20;100833.88;2080595;28;20057;-64
2021/03/25 01:16:17;;;;;;;14.82;11.57;;;;;;;3.29;80.41;100833.78;2081019;28;20117;-64
2021/03/25 01:17:17;;;;;;;16.60;11.75;;;;;;;3.23;80.64;100838.88;2081304;28;20033;-64
2021/03/25 01:18:18;;;;;;;17.13;12.50;;;;;;;3.20;80.94;100825.97;2081220;28;20029;-64
2021/03/25 01:19:26;;;;;;;20.80;11.90;;;;;;;3.13;81.38;100835.38;2081337;28;20068;-64
2021/03/25 01:20:37;;;;;;;17.67;12.52;;;;;;;3.16;81.20;100827.66;2081313;28;20044;-64
2021/03/25 01:21:38;;;;;;;16.85;12.05;;;;;;;3.13;81.42;100834.50;2071677;28;20030;-64
2021/03/25 01:22:38;;;;;;;19.67;11.48;;;;;;;3.25;81.16;100827.75;2073064;28;20077;-64
2021/03/25 01:23:39;;;;;;;16.20;11.93;;;;;;;3.13;81.53;100827.63;2082161;28;20029;-64
2021/03/25 01:24:39;;;;;;;17.93;11.70;;;;;;;3.27;81.20;100825.19;2075143;28;20121;-64
2021/03/25 01:25:40;;;;;;;15.53;12.10;;;;;;;3.22;81.23;100829.44;2081393;28;20068;-64
2021/03/25 01:26:40;;;;;;;16.75;12.20;;;;;;;3.21;81.33;100830.28;2081419;28;20282;-64
2021/03/25 01:27:41;;;;;;;17.75;11.90;;;;;;;3.24;81.50;100826.00;2080731;28;20029;-64
2021/03/25 01:28:41;;;;;;;15.53;11.67;;;;;;;3.28;81.14;100821.78;2081187;28;20367;-64
2021/03/25 01:29:41;;;;;;;16.67;12.87;;;;;;;3.18;81.35;100819.97;2071353;28;20097;-64
2021/03/25 01:30:44;;;;;;;18.70;13.20;;;;;;;3.32;81.26;100822.66;2072482;28;20445;-64
2021/03/25 01:31:44;;;;;;;20.23;12.85;;;;;;;3.33;81.01;100821.81;2080968;28;20025;-64
2021/03/25 01:32:44;;;;;;;19.77;13.50;;;;;;;3.30;81.18;100819.22;2081255;28;20385;-64
2021/03/25 01:33:45;;;;;;;25.30;12.97;;;;;;;3.42;80.81;100814.19;2081182;28;20028;-63
2021/03/25 01:34:45;;;;;;;19.20;13.35;;;;;;;3.41;80.73;100813.28;2081512;28;20022;-63
2021/03/25 01:35:46;;;;;;;21.00;13.63;;;;;;;3.36;81.03;100820.13;2080608;28;20048;-64
2021/03/25 01:36:46;;;;;;;26.13;13.90;;;;;;;3.39;81.09;100816.72;2081303;28;20017;-64
2021/03/25 01:37:48;;;;;;;17.80;13.05;;;;;;;3.37;81.09;100821.88;2081105;28;20045;-64
2021/03/25 01:38:49;;;;;;;22.50;13.90;;;;;;;3.29;81.52;100814.91;2081136;28;20088;-64
2021/03/25 01:39:50;;;;;;;22.90;14.53;;;;;;;3.24;81.58;100814.84;2069343;28;20486;-63
2021/03/25 01:40:54;;;;;;;20.00;14.15;;;;;;;3.22;82.07;100816.56;2064670;28;20030;-64
2021/03/25 01:41:54;;;;;;;23.45;14.45;;;;;;;3.14;82.35;100813.03;2080532;28;20478;-63
2021/03/25 01:43:19;;;;;;;22.97;14.77;;;;;;;3.14;82.87;100819.03;2081222;28;20074;-63
2021/03/25 01:44:39;;;;;;;23.67;15.00;;;;;;;3.16;82.73;100816.50;2076207;28;20536;-63
2021/03/25 01:46:10;;;;;;;26.35;15.93;;;;;;;3.24;82.80;100809.72;2074658;28;20030;-63
2021/03/25 01:47:10;;;;;;;23.92;15.23;;;;;;;3.23;82.70;100811.41;2080869;28;20156;-64
2021/03/25 01:48:12;;;;;;;25.20;16.17;;;;;;;3.23;82.81;100813.13;2079900;28;20033;-64
2021/03/25 01:49:15;;;;;;;26.17;15.43;;;;;;;3.28;82.83;100811.47;2081286;28;20079;-64
2021/03/25 01:50:16;;;;;;;23.38;16.27;;;;;;;3.25;83.07;100806.28;2081037;28;20053;-65
2021/03/25 01:51:35;;;;;;;23.90;16.30;;;;;;;3.15;83.19;100804.47;2080691;28;20013;-64
2021/03/25 01:52:50;;;;;;;23.67;16.30;;;;;;;3.20;82.87;100802.78;2075603;28;20055;-63
2021/03/25 01:54:16;;;;;;;25.05;16.48;;;;;;;3.08;83.44;100804.41;2069682;28;20033;-63
2021/03/25 01:55:41;;;;;;;24.30;15.02;;;;;;;3.24;82.87;100807.13;2075688;28;20025;-64
2021/03/25 01:56:52;;;;;;;22.77;15.40;;;;;;;3.19;83.22;100801.94;2072863;28;20040;-63
2021/03/25 01:57:55;;;;;;;23.20;16.20;;;;;;;3.21;83.07;100804.50;2072865;28;20100;-63
2021/03/25 01:59:36;;;;;;;24.48;15.85;;;;;;;3.24;82.92;100797.69;2076574;28;20033;-64
2021/03/25 02:00:51;;;;;;;25.83;16.65;;;;;;;3.27;82.84;100800.28;2055353;28;20050;-63
2021/03/25 02:02:16;;;;;;;29.85;16.85;;;;;;;3.18;83.08;100796.78;2080592;28;20033;-64
2021/03/25 02:03:23;;;;;;;25.30;17.02;;;;;;;3.14;82.88;100793.28;2080928;28;20281;-64
2021/03/25 02:04:44;;;;;;;23.95;16.48;;;;;;;3.19;83.39;100796.78;2081091;28;20041;-64
2021/03/25 02:05:50;;;;;;;23.55;16.38;;;;;;;3.11;83.46;100795.84;2081168;28;20017;-63
2021/03/25 02:07:19;;;;;;;24.17;16.70;;;;;;;3.15;83.66;100789.00;2080958;28;20034;-64
2021/03/25 02:08:23;;;;;;;22.33;15.55;;;;;;;3.17;83.46;100797.63;2080559;28;20029;-64
2021/03/25 02:09:48;;;;;;;23.00;16.23;;;;;;;3.08;83.63;100788.97;2081515;28;20395;-64
2021/03/25 02:10:56;;;;;;;26.33;15.07;;;;;;;3.02;83.80;100782.88;2075509;28;20025;-63
2021/03/25 02:12:10;;;;;;;24.15;15.73;;;;;;;3.03;84.12;100790.59;2080529;28;20041;-63
2021/03/25 02:13:23;;;;;;;24.35;16.23;;;;;;;3.03;83.99;100785.47;2080689;28;20044;-63
2021/03/25 02:14:54;;;;;;;21.75;14.88;;;;;;;3.11;83.58;100777.81;2080988;28;20025;-63
2021/03/25 02:16:06;;;;;;;20.45;14.23;;;;;;;3.18;83.37;100776.16;2080907;28;20165;-63
2021/03/25 02:17:12;;;;;;;;;;;;;;;3.14;83.33;100777.81;2081085;28;20040;-63
2021/03/25 02:18:34;;;;;;;21.85;13.82;;;;;;;3.24;82.95;100774.50;2081109;28;19968;-63
2021/03/25 02:19:41;;;;;;;23.02;13.63;;;;;;;3.19;83.06;100772.72;2080895;28;20021;-64
2021/03/25 02:20:55;;;;;;;19.45;13.68;;;;;;;3.25;82.56;100781.38;2080625;28;20029;-63
2021/03/25 02:22:29;;;;;;;22.50;13.65;;;;;;;3.30;82.33;100773.69;2080496;28;20474;-64
2021/03/25 02:24:01;;;;;;;21.92;13.93;;;;;;;3.31;82.13;100775.41;2055112;28;20046;-63
2021/03/25 02:25:08;;;;;;;21.25;13.23;;;;;;;3.25;82.51;100775.38;2054623;28;20050;-62
2021/03/25 02:26:14;;;;;;;22.00;13.73;;;;;;;3.25;82.46;100776.22;2060267;28;20521;-63
2021/03/25 02:27:18;;;;;;;20.10;14.02;;;;;;;3.23;82.41;100777.06;2080244;28;20589;-64
2021/03/25 02:28:34;;;;;;;20.60;13.60;;;;;;;3.28;82.22;100780.56;2080812;28;20535;-64
2021/03/25 02:29:45;;;;;;;18.90;13.15;;;;;;;3.20;82.89;100772.75;2080634;28;20035;-67
2021/03/25 02:30:46;;;;;;;19.00;13.55;;;;;;;3.13;83.04;100775.25;2080670;28;20033;-63
2021/03/25 02:31:51;;;;;;;24.33;14.33;;;;;;;3.11;82.99;100777.81;2079925;28;20021;-64
2021/03/25 02:32:58;;;;;;;21.83;13.82;;;;;;;3.18;82.73;100773.59;2080546;28;20030;-63
2021/03/25 02:34:05;;;;;;;23.40;14.57;;;;;;;3.10;82.66;100776.94;2080810;28;20028;-63
2021/03/25 02:35:35;;;;;;;20.00;13.60;;;;;;;3.02;83.33;100782.88;2081101;28;20026;-61
2021/03/25 02:36:52;;;;;;;19.88;13.55;;;;;;;2.98;83.42;100781.09;2078767;28;20037;-63
2021/03/25 02:38:02;;;;;;;22.40;14.02;;;;;;;2.99;83.32;100790.56;2076089;28;20427;-63
2021/03/25 02:39:15;;;;;;;20.42;13.45;;;;;;;2.98;83.30;100784.56;2080957;28;20029;-63
2021/03/25 02:40:43;;;;;;;18.02;13.52;;;;;;;2.94;83.40;100786.22;2080926;28;20029;-63
2021/03/25 02:41:50;;;;;;;20.33;13.32;;;;;;;3.01;83.25;100783.72;2080821;28;20100;-63
2021/03/25 02:43:01;;;;;;;22.30;13.45;;;;;;;2.92;83.33;100785.34;2080168;28;20104;-63
2021/03/25 02:44:21;;;;;;;22.70;13.98;;;;;;;2.90;83.46;100788.75;2071955;28;20033;-63
2021/03/25 02:45:29;;;;;;;18.60;13.20;;;;;;;2.93;83.48;100786.22;2074308;28;20406;-64
2021/03/25 02:46:38;;;;;;;19.17;13.48;;;;;;;2.93;83.21;100784.50;2080585;28;20088;-61
2021/03/25 02:47:44;;;;;;;20.73;13.40;;;;;;;2.94;83.31;100782.78;2080152;28;20025;-62
2021/03/25 02:48:47;;;;;;;18.85;13.52;;;;;;;2.73;83.85;100781.72;2080148;28;20017;-63
2021/03/25 02:49:53;;;;;;;21.83;14.18;;;;;;;2.72;84.06;100779.13;2079993;28;20060;-63
2021/03/25 02:51:08;;;;;;;21.77;14.10;;;;;;;2.75;83.79;100785.16;2080039;28;20104;-63
2021/03/25 02:52:21;;;;;;;20.58;14.20;;;;;;;2.74;83.94;100788.59;2078735;28;20086;-63
2021/03/25 02:53:34;;;;;;;20.35;13.32;;;;;;;2.71;84.14;100788.53;2078466;28;20067;-63
2021/03/25 02:54:34;;;;;;;25.33;13.77;;;;;;;2.63;84.59;100792.75;2081095;28;20052;-69
2021/03/25 02:55:35;;;;;;;20.37;14.00;;;;;;;2.80;84.71;100783.50;2079738;28;20013;-63
2021/03/25 02:56:50;;;;;;;17.25;12.98;;;;;;;2.71;84.16;100778.25;2080074;28;20021;-63
2021/03/25 02:58:00;;;;;;;18.58;12.70;;;;;;;2.72;83.95;100777.41;2080359;28;20026;-63
2021/03/25 02:59:06;;;;;;;20.48;13.20;;;;;;;2.71;83.94;100783.38;2080358;28;20037;-63
2021/03/25 03:00:11;;;;;;;20.98;13.23;;;;;;;2.68;83.93;100788.53;2080540;28;20075;-63
2021/03/25 03:01:14;;;;;;;18.80;12.32;;;;;;;2.76;83.51;100773.16;2080212;28;20072;-63
2021/03/25 03:02:22;;;;;;;19.15;13.02;;;;;;;2.69;83.55;100776.50;2080581;28;20032;-63
2021/03/25 03:03:28;;;;;;;18.67;13.30;;;;;;;2.62;84.02;100775.56;2080213;28;20042;-63
2021/03/25 03:04:37;;;;;;;20.00;13.65;;;;;;;2.62;84.22;100780.72;2080415;28;20052;-63
2021/03/25 03:05:41;;;;;;;20.42;13.55;;;;;;;2.60;84.10;100775.56;2079948;28;20420;-63
2021/03/25 03:06:48;;;;;;;20.65;13.45;;;;;;;2.59;84.24;100783.28;2080138;28;20029;-63
2021/03/25 03:07:55;;;;;;;20.50;13.18;;;;;;;2.62;84.03;100779.03;2080348;28;20025;-63
2021/03/25 03:08:56;;;;;;;20.05;13.80;;;;;;;2.58;84.17;100787.53;2080294;28;20029;-63
2021/03/25 03:10:04;;;;;;;18.83;13.13;;;;;;;2.60;83.80;100780.72;2079964;28;20021;-63
2021/03/25 03:11:17;;;;;;;17.88;12.68;;;;;;;2.54;84.01;100779.75;2080068;28;20038;-63
2021/03/25 03:12:28;;;;;;;18.55;12.38;;;;;;;2.53;84.05;100778.03;2080503;28;20025;-63
2021/03/25 03:13:34;;;;;;;21.38;13.15;;;;;;;2.45;84.19;100781.38;2080444;28;20108;-63
2021/03/25 03:14:41;;;;;;;18.38;12.35;;;;;;;2.48;84.19;100785.69;2080619;28;20227;-63
2021/03/25 03:15:52;;;;;;;19.67;12.63;;;;;;;2.41;84.39;100779.59;2080373;28;20033;-63
2021/03/25 03:17:23;;;;;;;18.98;12.23;;;;;;;2.38;84.50;100777.00;2080503;28;20491;-63
2021/03/25 03:18:43;;;;;;;16.10;12.05;;;;;;;2.36;84.49;100781.28;2061316;28;20049;-63
2021/03/25 03:19:49;;;;;;;19.23;11.93;;;;;;;2.21;84.92;100776.78;2068947;28;20025;-63
2021/03/25 03:21:03;;;;;;;20.98;12.45;;;;;;;2.23;85.17;100780.25;2072623;28;20018;-63
2021/03/25 03:22:06;;;;;;;19.30;12.48;;;;;;;2.20;85.11;100784.50;2080483;28;20060;-63
2021/03/25 03:23:09;;;;;;;18.60;12.40;;;;;;;2.12;85.25;100781.81;2080317;28;20028;-63
2021/03/25 03:24:10;;;;;;;17.27;11.88;;;;;;;2.10;85.49;100778.34;2079903;28;20389;-63
2021/03/25 03:25:18;;;;;;;18.27;12.60;;;;;;;2.06;85.64;100780.00;2080056;28;20029;-63
2021/03/25 03:26:25;;;;;;;21.42;12.32;;;;;;;2.06;85.68;100780.00;2080029;28;20616;-63
2021/03/25 03:27:32;;;;;;;18.98;12.05;;;;;;;2.09;85.49;100776.59;2079698;28;20592;-63
2021/03/25 03:28:42;;;;;;;18.23;12.45;;;;;;;2.13;85.65;100776.69;2080019;28;20025;-63
2021/03/25 03:29:45;;;;;;;17.75;11.70;;;;;;;2.08;85.68;100780.03;2078604;28;20448;-63
2021/03/25 03:30:55;;;;;;;17.30;12.30;;;;;;;2.10;85.33;100774.09;2080219;28;20068;-63
2021/03/25 03:32:07;;;;;;;15.30;11.50;;;;;;;2.20;85.27;100775.06;2080551;28;20098;-63
2021/03/25 03:33:20;;;;;;;15.13;11.60;;;;;;;2.14;85.41;100775.84;2080432;28;20378;-63
2021/03/25 03:34:27;;;;;;;19.25;12.32;;;;;;;2.25;84.77;100772.53;2080633;28;20104;-63
2021/03/25 03:36:02;;;;;;;17.83;12.25;;;;;;;2.18;85.22;100769.03;2080424;28;20026;-63
2021/03/25 03:37:09;;;;;;;16.95;11.27;;;;;;;2.13;85.29;100770.69;2074769;28;20045;-63
2021/03/25 03:38:15;;;;;;;19.98;12.30;;;;;;;2.08;85.42;100775.75;2080144;28;20028;-62
2021/03/25 03:39:20;;;;;;;17.55;11.30;;;;;;;2.13;85.60;100763.81;2078214;28;20096;-62
2021/03/25 03:40:28;;;;;;;18.38;11.68;;;;;;;2.04;85.68;100773.97;2071892;28;20470;-62
2021/03/25 03:41:38;;;;;;;16.05;11.32;;;;;;;2.02;85.88;100778.22;2072523;28;20057;-62
2021/03/25 03:42:40;;;;;;;17.13;11.73;;;;;;;1.96;85.93;100780.72;2080180;28;20032;-62
2021/03/25 03:43:42;;;;;;;18.65;11.80;;;;;;;1.97;86.02;100777.31;2079980;28;20486;-63
2021/03/25 03:44:50;;;;;;;15.35;11.10;;;;;;;1.82;86.21;100771.09;2079800;28;20048;-62
2021/03/25 03:45:57;;;;;;;16.70;11.73;;;;;;;1.95;86.03;100774.72;2131828;22;20652;-74
2021/03/25 03:46:58;;;;;;;16.55;11.10;;;;;;;2.00;85.93;100773.06;2082131;28;20036;-73
2021/03/25 03:48:03;;;;;;;17.65;11.68;;;;;;;2.01;85.68;100769.66;2081117;28;20426;-74
2021/03/25 03:49:07;;;;;;;15.50;11.75;;;;;;;1.94;85.43;100777.25;2081348;28;20405;-73
2021/03/25 03:50:13;;;;;;;16.45;11.15;;;;;;;1.97;85.68;100777.31;2081206;28;20032;-74
2021/03/25 03:51:31;;;;;;;14.38;11.00;;;;;;;1.82;86.07;100783.09;2080803;28;20427;-74
2021/03/25 03:52:38;;;;;;;17.35;10.82;;;;;;;1.87;86.31;100776.28;2081434;28;20128;-71
2021/03/25 03:53:39;;;;;;;15.82;11.48;;;;;;;1.90;86.28;100775.50;2081175;28;20029;-71
2021/03/25 03:54:40;;;;;;;19.17;11.75;;;;;;;1.87;86.42;100778.88;2080752;28;20119;-71
2021/03/25 03:55:41;;;;;;;16.27;12.30;;;;;;;1.88;86.47;100778.03;2078578;28;20079;-71
2021/03/25 03:57:13;;;;;;;18.40;11.93;;;;;;;1.91;86.44;100782.38;2075485;28;20505;-71
2021/03/25 03:58:13;;;;;;;16.67;11.18;;;;;;;1.90;86.24;100772.94;2073088;28;20057;-71
2021/03/25 04:00:00;;;;;;;15.07;11.27;;;;;;;1.97;86.38;100782.44;2072968;28;20101;-71
2021/03/25 04:01:07;;;;;;;14.00;10.23;;;;;;;2.09;86.18;100777.50;2031872;29;20052;-71
2021/03/25 04:02:29;;;;;;;20.08;12.02;;;;;;;1.96;86.39;100776.44;2073734;28;20030;-71
2021/03/25 04:03:39;;;;;;;20.75;12.77;;;;;;;2.00;86.28;100777.38;2072439;28;20053;-71
2021/03/25 04:04:42;;;;;;;18.30;11.20;;;;;;;1.99;86.30;100778.22;2073224;28;20093;-71
2021/03/25 04:05:50;;;;;;;18.45;12.98;;;;;;;1.97;86.29;100775.59;2072856;28;20033;-71
2021/03/25 04:06:56;;;;;;;17.17;11.45;;;;;;;1.95;86.56;100776.41;2067762;28;20037;-71
2021/03/25 04:08:29;;;;;;;17.67;11.93;;;;;;;1.97;86.70;100779.88;2073425;28;20029;-71
2021/03/25 04:09:35;;;;;;;19.70;12.23;;;;;;;1.89;86.66;100776.34;2081390;28;20038;-71
2021/03/25 04:10:42;;;;;;;16.98;12.35;;;;;;;1.83;86.94;100780.53;2081542;28;20464;-71
2021/03/25 04:11:51;;;;;;;17.88;11.75;;;;;;;1.88;87.04;100777.19;2072541;28;20022;-71
2021/03/25 04:12:55;;;;;;;16.95;12.00;;;;;;;1.91;86.52;100782.38;2066459;28;20022;-71
2021/03/25 04:14:01;;;;;;;19.05;12.10;;;;;;;1.86;86.80;100775.44;2073549;28;20030;-71
2021/03/25 04:15:23;;;;;;;17.70;11.88;;;;;;;1.96;86.33;100775.59;2072818;28;20403;-71
2021/03/25 04:16:27;;;;;;;16.85;11.63;;;;;;;1.95;86.34;100774.72;2068417;28;20061;-71
2021/03/25 04:17:31;;;;;;;16.60;11.90;;;;;;;1.99;86.26;100781.63;2065746;28;20054;-70
2021/03/25 04:18:47;;;;;;;16.73;11.88;;;;;;;1.93;86.39;100770.38;2072913;28;20105;-71
2021/03/25 04:19:50;;;;;;;14.82;11.13;;;;;;;2.02;86.11;100767.94;2073449;28;20062;-71
2021/03/25 04:20:55;;;;;;;17.40;11.68;;;;;;;1.97;86.17;100770.44;2072949;28;20105;-71
2021/03/25 04:22:12;;;;;;;15.50;11.55;;;;;;;1.95;86.56;100771.28;2072908;28;20482;-71
2021/03/25 04:23:17;;;;;;;17.23;11.85;;;;;;;1.86;86.80;100770.31;2073520;28;20104;-71
2021/03/25 04:24:22;;;;;;;16.42;11.52;;;;;;;1.93;86.63;100775.53;2072799;28;20052;-71
2021/03/25 04:25:30;;;;;;;20.63;11.75;;;;;;;2.07;86.21;100771.47;2073316;28;20031;-71
2021/03/25 04:26:43;;;;;;;15.25;11.40;;;;;;;2.02;86.14;100773.09;2072665;28;20080;-71
2021/03/25 04:27:56;;;;;;;18.92;11.93;;;;;;;1.97;86.48;100777.31;2065327;28;20109;-71
2021/03/25 04:29:05;;;;;;;18.02;11.50;;;;;;;1.94;86.72;100772.13;2064710;28;20508;-71
2021/03/25 04:30:13;;;;;;;18.23;11.63;;;;;;;1.90;86.74;100776.34;2074855;28;20094;-71
2021/03/25 04:31:14;;;;;;;16.35;12.00;;;;;;;2.09;86.40;100772.34;2080749;28;20021;-71
2021/03/25 04:32:15;;;;;;;17.52;12.20;;;;;;;1.95;86.68;100777.31;2081832;28;20033;-70
2021/03/25 04:33:18;;;;;;;18.77;12.02;;;;;;;1.89;86.76;100772.06;2082581;28;20483;-71
2021/03/25 04:34:19;;;;;;;21.23;12.27;;;;;;;1.90;86.86;100773.78;2082517;28;20037;-70
2021/03/25 04:35:21;;;;;;;18.47;11.93;;;;;;;1.86;86.82;100772.03;2082734;28;20391;-70
2021/03/25 04:36:25;;;;;;;16.88;12.02;;;;;;;1.80;87.03;100770.22;2082265;28;20422;-71
2021/03/25 04:37:29;;;;;;;17.95;12.90;;;;;;;1.86;86.98;100770.31;2082333;28;20029;-71
2021/03/25 04:38:34;;;;;;;17.45;12.25;;;;;;;1.78;87.27;100774.47;2080516;28;20017;-71
2021/03/25 04:39:38;;;;;;;16.80;12.15;;;;;;;1.81;87.48;100774.50;2074259;28;20018;-73
2021/03/25 04:40:39;;;;;;;19.55;12.35;;;;;;;1.96;86.98;100775.59;2074760;28;20051;-73
2021/03/25 04:41:42;;;;;;;16.25;11.88;;;;;;;1.89;86.90;100773.78;2073985;28;20096;-73
2021/03/25 04:42:44;;;;;;;18.98;12.60;;;;;;;1.81;87.22;100771.94;2074139;28;20491;-73
2021/03/25 04:43:46;;;;;;;21.33;13.30;;;;;;;1.83;87.29;100767.69;2074877;28;20058;-73
2021/03/25 04:44:51;;;;;;;16.08;11.68;;;;;;;1.86;87.21;100770.31;2074127;28;20025;-73
2021/03/25 04:46:22;;;;;;;18.52;12.52;;;;;;;1.90;87.27;100771.22;2074043;28;20075;-73
2021/03/25 04:47:29;;;;;;;15.15;11.25;;;;;;;1.77;87.36;100775.31;2069260;28;20032;-72
2021/03/25 04:48:33;;;;;;;16.38;11.88;;;;;;;1.77;87.62;100766.72;2067174;28;20023;-72
2021/03/25 04:49:40;;;;;;;18.17;12.52;;;;;;;1.78;87.50;100765.88;2065315;28;20026;-72
2021/03/25 04:50:48;;;;;;;18.50;12.40;;;;;;;1.73;87.67;100773.53;2071835;28;20037;-73
2021/03/25 04:51:57;;;;;;;19.52;12.90;;;;;;;1.76;87.79;100773.56;2074217;28;20097;-73
2021/03/25 04:53:02;;;;;;;18.25;11.68;;;;;;;1.83;87.58;100766.84;2074216;28;20109;-73
2021/03/25 04:54:26;;;;;;;18.77;12.07;;;;;;;1.84;87.48;100766.84;2074709;28;20041;-73
2021/03/25 04:55:28;;;;;;;18.00;12.60;;;;;;;1.85;87.17;100768.56;2074088;28;20384;-73
2021/03/25 04:56:28;;;;;;;;;;;;;;;1.76;87.43;100770.16;2074971;28;20117;-72
2021/03/25 04:57:35;;;;;;;17.27;11.50;;;;;;;1.78;87.47;100768.44;2073707;28;19920;-72
2021/03/25 04:58:45;;;;;;;18.48;11.95;;;;;;;1.69;87.67;100764.91;2074563;28;20037;-72
2021/03/25 04:59:45;;;;;;;21.65;12.85;;;;;;;1.66;87.76;100756.28;2072147;28;20030;-73
2021/03/25 05:00:46;;;;;;;15.35;11.90;;;;;;;1.63;87.87;100772.53;2073280;28;20109;-73
2021/03/25 05:01:46;;;;;;;18.00;12.40;;;;;;;1.60;88.19;100767.34;2072741;28;20026;-73
2021/03/25 05:02:46;;;;;;;17.63;12.17;;;;;;;1.54;88.26;100765.53;2077694;28;20535;-73
2021/03/25 05:03:48;;;;;;;18.93;11.70;;;;;;;1.58;88.30;100769.00;2073519;28;20026;-73
2021/03/25 05:04:54;;;;;;;18.48;12.40;;;;;;;1.60;88.32;100769.91;2073521;28;20025;-73
2021/03/25 05:05:56;;;;;;;17.27;11.40;;;;;;;1.64;88.15;100768.25;2066587;28;20751;-73
2021/03/25 05:07:01;;;;;;;17.98;11.82;;;;;;;1.61;88.26;100768.22;2065734;28;20049;-73